sensor_id;sensor_type;location;lat;lon;timestamp;pressure;altitude;pressure_sealevel;temperature;humidity
50632;BME280;49583;45.590;-122.498;2023-03-31T00:01:51;100784.84;;;12.25;57.43
50632;BME280;49583;45.590;-122.498;2023-03-31T00:04:04;100791.08;;;12.24;57.50
50632;BME280;49583;45.590;-122.498;2023-03-31T00:06:17;100799.04;;;12.21;58.04
50632;BME280;49583;45.590;-122.498;2023-03-31T00:08:32;100786.71;;;12.15;58.15
50632;BME280;49583;45.590;-122.498;2023-03-31T00:10:47;100779.72;;;12.05;58.22
50632;BME280;49583;45.590;-122.498;2023-03-31T00:13:00;100764.16;;;11.89;58.25
50632;BME280;49583;45.590;-122.498;2023-03-31T00:15:14;100764.90;;;11.78;58.65
50632;BME280;49583;45.590;-122.498;2023-03-31T00:17:27;100764.70;;;11.69;58.99
50632;BME280;49583;45.590;-122.498;2023-03-31T00:19:43;100771.64;;;11.63;59.22
50632;BME280;49583;45.590;-122.498;2023-03-31T00:21:59;100790.85;;;11.58;59.61
50632;BME280;49583;45.590;-122.498;2023-03-31T00:24:15;100790.67;;;11.57;60.28
50632;BME280;49583;45.590;-122.498;2023-03-31T00:26:30;100790.34;;;11.56;60.74
50632;BME280;49583;45.590;-122.498;2023-03-31T00:28:45;100786.22;;;11.55;61.15
50632;BME280;49583;45.590;-122.498;2023-03-31T00:31:01;100781.44;;;11.54;61.24
50632;BME280;49583;45.590;-122.498;2023-03-31T00:33:15;100783.09;;;11.55;61.26
50632;BME280;49583;45.590;-122.498;2023-03-31T00:35:28;100788.45;;;11.56;61.56
50632;BME280;49583;45.590;-122.498;2023-03-31T00:37:41;100784.42;;;11.59;61.63
50632;BME280;49583;45.590;-122.498;2023-03-31T00:39:55;100785.11;;;11.63;61.54
50632;BME280;49583;45.590;-122.498;2023-03-31T00:42:12;100786.23;;;11.67;61.48
50632;BME280;49583;45.590;-122.498;2023-03-31T00:44:29;100786.63;;;11.72;61.49
50632;BME280;49583;45.590;-122.498;2023-03-31T00:46:51;100792.86;;;11.77;61.73
50632;BME280;49583;45.590;-122.498;2023-03-31T00:49:07;100790.42;;;11.80;62.14
50632;BME280;49583;45.590;-122.498;2023-03-31T00:51:26;100793.80;;;11.85;62.45
50632;BME280;49583;45.590;-122.498;2023-03-31T00:53:40;100795.80;;;11.87;62.55
50632;BME280;49583;45.590;-122.498;2023-03-31T00:55:55;100794.66;;;11.89;62.64
50632;BME280;49583;45.590;-122.498;2023-03-31T00:58:10;100797.20;;;11.91;62.68
50632;BME280;49583;45.590;-122.498;2023-03-31T01:00:24;100796.34;;;11.91;62.55
50632;BME280;49583;45.590;-122.498;2023-03-31T01:02:37;100799.25;;;11.91;62.43
50632;BME280;49583;45.590;-122.498;2023-03-31T01:04:53;100800.73;;;11.91;62.40
50632;BME280;49583;45.590;-122.498;2023-03-31T01:07:13;100803.30;;;11.90;61.97
50632;BME280;49583;45.590;-122.498;2023-03-31T01:09:31;100808.52;;;11.89;61.55
50632;BME280;49583;45.590;-122.498;2023-03-31T01:11:49;100811.15;;;11.87;61.14
50632;BME280;49583;45.590;-122.498;2023-03-31T01:14:03;100815.36;;;11.81;60.68
50632;BME280;49583;45.590;-122.498;2023-03-31T01:16:18;100817.72;;;11.77;60.13
50632;BME280;49583;45.590;-122.498;2023-03-31T01:18:33;100823.52;;;11.71;59.70
50632;BME280;49583;45.590;-122.498;2023-03-31T01:20:58;100828.36;;;11.66;59.47
50632;BME280;49583;45.590;-122.498;2023-03-31T01:23:41;100831.02;;;11.61;59.22
50632;BME280;49583;45.590;-122.498;2023-03-31T01:29:10;100845.32;;;11.51;58.93
50632;BME280;49583;45.590;-122.498;2023-03-31T01:31:51;100850.40;;;11.47;58.65
50632;BME280;49583;45.590;-122.498;2023-03-31T01:37:42;100856.27;;;11.35;58.25
50632;BME280;49583;45.590;-122.498;2023-03-31T01:40:26;100858.52;;;11.27;58.11
50632;BME280;49583;45.590;-122.498;2023-03-31T01:42:44;100863.75;;;11.22;58.08
50632;BME280;49583;45.590;-122.498;2023-03-31T01:45:07;100867.52;;;11.16;57.78
50632;BME280;49583;45.590;-122.498;2023-03-31T01:47:30;100872.05;;;11.11;57.88
50632;BME280;49583;45.590;-122.498;2023-03-31T01:49:56;100874.59;;;11.06;57.75
50632;BME280;49583;45.590;-122.498;2023-03-31T01:52:21;100876.19;;;11.04;57.64
50632;BME280;49583;45.590;-122.498;2023-03-31T01:54:41;100881.22;;;11.02;57.72
50632;BME280;49583;45.590;-122.498;2023-03-31T01:57:04;100884.77;;;11.00;57.69
50632;BME280;49583;45.590;-122.498;2023-03-31T01:59:26;100889.74;;;10.98;57.55
50632;BME280;49583;45.590;-122.498;2023-03-31T02:01:44;100893.68;;;10.95;57.47
50632;BME280;49583;45.590;-122.498;2023-03-31T02:04:06;100896.80;;;10.95;57.52
50632;BME280;49583;45.590;-122.498;2023-03-31T02:06:23;100900.17;;;10.92;57.53
50632;BME280;49583;45.590;-122.498;2023-03-31T02:08:42;100899.04;;;10.90;57.42
50632;BME280;49583;45.590;-122.498;2023-03-31T02:10:57;100900.88;;;10.88;57.34
50632;BME280;49583;45.590;-122.498;2023-03-31T02:13:12;100906.06;;;10.86;56.98
50632;BME280;49583;45.590;-122.498;2023-03-31T02:15:29;100906.14;;;10.82;56.78
50632;BME280;49583;45.590;-122.498;2023-03-31T02:17:44;100909.59;;;10.79;56.76
50632;BME280;49583;45.590;-122.498;2023-03-31T02:20:04;100909.21;;;10.77;56.51
50632;BME280;49583;45.590;-122.498;2023-03-31T02:22:21;100912.91;;;10.74;56.48
50632;BME280;49583;45.590;-122.498;2023-03-31T02:24:36;100911.53;;;10.70;56.26
50632;BME280;49583;45.590;-122.498;2023-03-31T02:26:53;100917.51;;;10.67;55.97
50632;BME280;49583;45.590;-122.498;2023-03-31T02:29:08;100914.23;;;10.61;55.62
50632;BME280;49583;45.590;-122.498;2023-03-31T02:31:28;100919.42;;;10.56;55.61
50632;BME280;49583;45.590;-122.498;2023-03-31T02:33:48;100925.80;;;10.52;55.35
50632;BME280;49583;45.590;-122.498;2023-03-31T02:36:01;100930.45;;;10.48;55.25
50632;BME280;49583;45.590;-122.498;2023-03-31T02:38:15;100932.39;;;10.43;54.91
50632;BME280;49583;45.590;-122.498;2023-03-31T02:40:28;100937.57;;;10.38;54.73
50632;BME280;49583;45.590;-122.498;2023-03-31T02:42:42;100941.27;;;10.35;54.91
50632;BME280;49583;45.590;-122.498;2023-03-31T02:45:00;100942.45;;;10.33;54.92
50632;BME280;49583;45.590;-122.498;2023-03-31T02:47:14;100949.00;;;10.29;54.57
50632;BME280;49583;45.590;-122.498;2023-03-31T02:49:29;100961.61;;;10.27;54.84
50632;BME280;49583;45.590;-122.498;2023-03-31T02:52:04;100960.08;;;10.26;54.72
50632;BME280;49583;45.590;-122.498;2023-03-31T02:57:26;100964.05;;;10.23;54.83
50632;BME280;49583;45.590;-122.498;2023-03-31T02:59:53;100966.39;;;10.19;54.61
50632;BME280;49583;45.590;-122.498;2023-03-31T03:02:16;100973.34;;;10.14;54.59
50632;BME280;49583;45.590;-122.498;2023-03-31T03:04:51;100974.92;;;10.12;54.91
50632;BME280;49583;45.590;-122.498;2023-03-31T03:07:11;100974.65;;;10.11;54.92
50632;BME280;49583;45.590;-122.498;2023-03-31T03:09:37;100978.20;;;10.10;54.81
50632;BME280;49583;45.590;-122.498;2023-03-31T03:12:01;100983.02;;;10.08;54.79
50632;BME280;49583;45.590;-122.498;2023-03-31T03:14:22;100982.15;;;10.08;54.90
50632;BME280;49583;45.590;-122.498;2023-03-31T03:16:41;100985.83;;;10.08;55.11
50632;BME280;49583;45.590;-122.498;2023-03-31T03:19:02;100991.98;;;10.08;55.02
50632;BME280;49583;45.590;-122.498;2023-03-31T03:21:16;100993.98;;;10.06;55.06
50632;BME280;49583;45.590;-122.498;2023-03-31T03:23:30;101000.10;;;10.03;54.98
50632;BME280;49583;45.590;-122.498;2023-03-31T03:25:45;100999.84;;;10.00;55.46
50632;BME280;49583;45.590;-122.498;2023-03-31T03:27:58;101001.95;;;9.97;54.86
50632;BME280;49583;45.590;-122.498;2023-03-31T03:30:16;101005.08;;;9.95;55.13
50632;BME280;49583;45.590;-122.498;2023-03-31T03:32:30;101003.81;;;9.92;55.16
50632;BME280;49583;45.590;-122.498;2023-03-31T03:34:43;101007.83;;;9.90;54.81
50632;BME280;49583;45.590;-122.498;2023-03-31T03:36:57;101012.68;;;9.88;54.94
50632;BME280;49583;45.590;-122.498;2023-03-31T03:39:10;101014.05;;;9.84;54.94
50632;BME280;49583;45.590;-122.498;2023-03-31T03:41:22;101019.91;;;9.81;55.19
50632;BME280;49583;45.590;-122.498;2023-03-31T03:43:36;101021.34;;;9.80;54.65
50632;BME280;49583;45.590;-122.498;2023-03-31T03:45:51;101027.40;;;9.78;54.85
50632;BME280;49583;45.590;-122.498;2023-03-31T03:48:04;101030.58;;;9.77;54.89
50632;BME280;49583;45.590;-122.498;2023-03-31T03:50:18;101033.14;;;9.77;54.97
50632;BME280;49583;45.590;-122.498;2023-03-31T03:52:31;101031.94;;;9.76;54.90
50632;BME280;49583;45.590;-122.498;2023-03-31T03:54:45;101035.06;;;9.75;54.94
50632;BME280;49583;45.590;-122.498;2023-03-31T03:56:59;101036.14;;;9.76;54.99
50632;BME280;49583;45.590;-122.498;2023-03-31T03:59:12;101040.39;;;9.74;55.11
50632;BME280;49583;45.590;-122.498;2023-03-31T04:01:25;101040.14;;;9.73;55.06
50632;BME280;49583;45.590;-122.498;2023-03-31T04:03:37;101048.52;;;9.71;54.66
50632;BME280;49583;45.590;-122.498;2023-03-31T04:05:51;101049.38;;;9.69;54.65
50632;BME280;49583;45.590;-122.498;2023-03-31T04:08:04;101045.19;;;9.67;54.54
50632;BME280;49583;45.590;-122.498;2023-03-31T04:10:19;101051.09;;;9.66;54.78
50632;BME280;49583;45.590;-122.498;2023-03-31T04:12:36;101051.42;;;9.64;54.66
50632;BME280;49583;45.590;-122.498;2023-03-31T04:14:49;101051.27;;;9.61;54.89
50632;BME280;49583;45.590;-122.498;2023-03-31T04:17:03;101052.29;;;9.61;54.65
50632;BME280;49583;45.590;-122.498;2023-03-31T04:19:17;101056.52;;;9.62;54.85
50632;BME280;49583;45.590;-122.498;2023-03-31T04:21:32;101053.26;;;9.60;55.00
50632;BME280;49583;45.590;-122.498;2023-03-31T04:23:47;101059.76;;;9.61;54.92
50632;BME280;49583;45.590;-122.498;2023-03-31T04:26:00;101064.03;;;9.60;54.62
50632;BME280;49583;45.590;-122.498;2023-03-31T04:28:16;101064.75;;;9.57;54.33
50632;BME280;49583;45.590;-122.498;2023-03-31T04:30:29;101065.67;;;9.55;54.61
50632;BME280;49583;45.590;-122.498;2023-03-31T04:32:42;101066.80;;;9.54;54.51
50632;BME280;49583;45.590;-122.498;2023-03-31T04:34:55;101069.49;;;9.52;54.61
50632;BME280;49583;45.590;-122.498;2023-03-31T04:37:14;101070.69;;;9.50;54.46
50632;BME280;49583;45.590;-122.498;2023-03-31T04:39:28;101071.95;;;9.48;54.44
50632;BME280;49583;45.590;-122.498;2023-03-31T04:41:42;101073.60;;;9.47;54.52
50632;BME280;49583;45.590;-122.498;2023-03-31T04:43:56;101077.40;;;9.46;54.49
50632;BME280;49583;45.590;-122.498;2023-03-31T04:46:09;101079.46;;;9.44;54.58
50632;BME280;49583;45.590;-122.498;2023-03-31T04:48:23;101076.57;;;9.41;54.95
50632;BME280;49583;45.590;-122.498;2023-03-31T04:50:37;101080.16;;;9.39;54.64
50632;BME280;49583;45.590;-122.498;2023-03-31T04:52:51;101084.94;;;9.37;54.56
50632;BME280;49583;45.590;-122.498;2023-03-31T04:55:05;101089.70;;;9.37;54.71
50632;BME280;49583;45.590;-122.498;2023-03-31T04:57:19;101089.31;;;9.38;54.76
50632;BME280;49583;45.590;-122.498;2023-03-31T04:59:32;101089.10;;;9.35;54.78
50632;BME280;49583;45.590;-122.498;2023-03-31T05:01:45;101092.31;;;9.31;54.86
50632;BME280;49583;45.590;-122.498;2023-03-31T05:03:59;101094.45;;;9.27;54.29
50632;BME280;49583;45.590;-122.498;2023-03-31T05:06:14;101091.93;;;9.22;54.36
50632;BME280;49583;45.590;-122.498;2023-03-31T05:08:28;101095.73;;;9.18;54.44
50632;BME280;49583;45.590;-122.498;2023-03-31T05:10:44;101098.33;;;9.15;54.71
50632;BME280;49583;45.590;-122.498;2023-03-31T05:12:58;101101.30;;;9.13;54.13
50632;BME280;49583;45.590;-122.498;2023-03-31T05:15:12;101098.75;;;9.09;54.08
50632;BME280;49583;45.590;-122.498;2023-03-31T05:17:25;101100.95;;;9.07;54.28
50632;BME280;49583;45.590;-122.498;2023-03-31T05:19:39;101098.89;;;9.04;54.27
50632;BME280;49583;45.590;-122.498;2023-03-31T05:21:52;101100.25;;;9.02;54.30
50632;BME280;49583;45.590;-122.498;2023-03-31T05:24:06;101106.37;;;9.01;54.28
50632;BME280;49583;45.590;-122.498;2023-03-31T05:26:19;101105.77;;;8.97;54.03
50632;BME280;49583;45.590;-122.498;2023-03-31T05:28:32;101107.42;;;8.96;54.08
50632;BME280;49583;45.590;-122.498;2023-03-31T05:30:45;101110.11;;;8.94;54.04
50632;BME280;49583;45.590;-122.498;2023-03-31T05:32:59;101108.73;;;8.96;54.63
50632;BME280;49583;45.590;-122.498;2023-03-31T05:35:14;101101.95;;;8.91;54.40
50632;BME280;49583;45.590;-122.498;2023-03-31T05:37:28;101112.20;;;8.92;54.62
50632;BME280;49583;45.590;-122.498;2023-03-31T05:39:42;101111.28;;;8.90;54.41
50632;BME280;49583;45.590;-122.498;2023-03-31T05:41:56;101114.99;;;8.88;54.75
50632;BME280;49583;45.590;-122.498;2023-03-31T05:44:08;101116.55;;;8.86;54.80
50632;BME280;49583;45.590;-122.498;2023-03-31T05:46:21;101117.19;;;8.87;54.92
50632;BME280;49583;45.590;-122.498;2023-03-31T05:48:36;101118.54;;;8.85;55.02
50632;BME280;49583;45.590;-122.498;2023-03-31T05:50:52;101117.39;;;8.86;55.06
50632;BME280;49583;45.590;-122.498;2023-03-31T05:53:08;101118.48;;;8.84;54.95
50632;BME280;49583;45.590;-122.498;2023-03-31T05:55:22;101117.90;;;8.82;55.08
50632;BME280;49583;45.590;-122.498;2023-03-31T05:57:36;101122.55;;;8.81;54.98
50632;BME280;49583;45.590;-122.498;2023-03-31T05:59:48;101124.20;;;8.80;55.28
50632;BME280;49583;45.590;-122.498;2023-03-31T06:02:00;101125.66;;;8.77;55.29
50632;BME280;49583;45.590;-122.498;2023-03-31T06:04:13;101120.58;;;8.75;55.22
50632;BME280;49583;45.590;-122.498;2023-03-31T06:06:27;101112.17;;;8.71;55.43
50632;BME280;49583;45.590;-122.498;2023-03-31T06:08:41;101112.98;;;8.68;55.55
50632;BME280;49583;45.590;-122.498;2023-03-31T06:10:55;101117.32;;;8.66;55.61
50632;BME280;49583;45.590;-122.498;2023-03-31T06:13:08;101124.89;;;8.64;55.63
50632;BME280;49583;45.590;-122.498;2023-03-31T06:15:21;101122.14;;;8.62;55.57
50632;BME280;49583;45.590;-122.498;2023-03-31T06:17:34;101122.70;;;8.60;55.86
50632;BME280;49583;45.590;-122.498;2023-03-31T06:19:48;101121.14;;;8.58;55.93
50632;BME280;49583;45.590;-122.498;2023-03-31T06:22:02;101121.56;;;8.55;56.13
50632;BME280;49583;45.590;-122.498;2023-03-31T06:24:14;101124.56;;;8.51;56.10
50632;BME280;49583;45.590;-122.498;2023-03-31T06:26:27;101118.71;;;8.47;56.26
50632;BME280;49583;45.590;-122.498;2023-03-31T06:28:40;101125.17;;;8.45;56.56
50632;BME280;49583;45.590;-122.498;2023-03-31T06:30:53;101124.98;;;8.41;56.46
50632;BME280;49583;45.590;-122.498;2023-03-31T06:33:11;101124.26;;;8.40;56.84
50632;BME280;49583;45.590;-122.498;2023-03-31T06:35:25;101126.19;;;8.40;56.89
50632;BME280;49583;45.590;-122.498;2023-03-31T06:37:39;101125.16;;;8.40;57.03
50632;BME280;49583;45.590;-122.498;2023-03-31T06:39:53;101121.38;;;8.39;57.08
50632;BME280;49583;45.590;-122.498;2023-03-31T06:42:06;101119.64;;;8.36;57.42
50632;BME280;49583;45.590;-122.498;2023-03-31T06:44:21;101121.67;;;8.34;57.51
50632;BME280;49583;45.590;-122.498;2023-03-31T06:46:34;101119.55;;;8.33;57.61
50632;BME280;49583;45.590;-122.498;2023-03-31T06:48:46;101124.54;;;8.30;57.78
50632;BME280;49583;45.590;-122.498;2023-03-31T06:51:01;101126.50;;;8.29;57.96
50632;BME280;49583;45.590;-122.498;2023-03-31T06:53:15;101125.91;;;8.27;57.93
50632;BME280;49583;45.590;-122.498;2023-03-31T06:55:27;101128.20;;;8.26;58.04
50632;BME280;49583;45.590;-122.498;2023-03-31T06:57:40;101130.64;;;8.26;58.15
50632;BME280;49583;45.590;-122.498;2023-03-31T06:59:53;101127.00;;;8.27;58.29
50632;BME280;49583;45.590;-122.498;2023-03-31T07:02:05;101127.02;;;8.28;58.37
50632;BME280;49583;45.590;-122.498;2023-03-31T07:04:19;101131.48;;;8.29;58.56
50632;BME280;49583;45.590;-122.498;2023-03-31T07:06:31;101134.00;;;8.29;58.42
50632;BME280;49583;45.590;-122.498;2023-03-31T07:08:44;101129.89;;;8.27;58.61
50632;BME280;49583;45.590;-122.498;2023-03-31T07:10:59;101131.77;;;8.26;58.50
50632;BME280;49583;45.590;-122.498;2023-03-31T07:13:12;101129.64;;;8.24;58.72
50632;BME280;49583;45.590;-122.498;2023-03-31T07:15:26;101129.39;;;8.23;58.90
50632;BME280;49583;45.590;-122.498;2023-03-31T07:17:39;101120.41;;;8.22;58.76
50632;BME280;49583;45.590;-122.498;2023-03-31T07:19:52;101120.55;;;8.22;58.91
50632;BME280;49583;45.590;-122.498;2023-03-31T07:22:07;101118.30;;;8.22;59.16
50632;BME280;49583;45.590;-122.498;2023-03-31T07:24:21;101114.00;;;8.20;58.97
50632;BME280;49583;45.590;-122.498;2023-03-31T07:26:35;101110.39;;;8.17;59.08
50632;BME280;49583;45.590;-122.498;2023-03-31T07:28:51;101111.64;;;8.15;59.28
50632;BME280;49583;45.590;-122.498;2023-03-31T07:31:12;101108.52;;;8.13;59.16
50632;BME280;49583;45.590;-122.498;2023-03-31T07:33:24;101106.26;;;8.11;59.31
50632;BME280;49583;45.590;-122.498;2023-03-31T07:35:39;101103.29;;;8.08;59.44
50632;BME280;49583;45.590;-122.498;2023-03-31T07:37:53;101105.91;;;8.05;59.42
50632;BME280;49583;45.590;-122.498;2023-03-31T07:40:08;101100.35;;;8.03;59.39
50632;BME280;49583;45.590;-122.498;2023-03-31T07:42:23;101101.13;;;8.01;59.61
50632;BME280;49583;45.590;-122.498;2023-03-31T07:44:37;101105.73;;;7.99;59.49
50632;BME280;49583;45.590;-122.498;2023-03-31T07:46:50;101110.50;;;7.99;59.66
50632;BME280;49583;45.590;-122.498;2023-03-31T07:49:04;101115.27;;;7.98;59.79
50632;BME280;49583;45.590;-122.498;2023-03-31T07:51:22;101115.02;;;7.97;59.83
50632;BME280;49583;45.590;-122.498;2023-03-31T07:53:36;101113.88;;;7.96;59.91
50632;BME280;49583;45.590;-122.498;2023-03-31T07:55:51;101115.61;;;7.94;59.97
50632;BME280;49583;45.590;-122.498;2023-03-31T07:58:04;101117.40;;;7.96;60.02
50632;BME280;49583;45.590;-122.498;2023-03-31T08:00:20;101121.27;;;7.97;60.07
50632;BME280;49583;45.590;-122.498;2023-03-31T08:02:34;101120.60;;;7.99;60.19
50632;BME280;49583;45.590;-122.498;2023-03-31T08:04:49;101125.36;;;7.99;60.24
50632;BME280;49583;45.590;-122.498;2023-03-31T08:07:02;101123.14;;;7.98;59.99
50632;BME280;49583;45.590;-122.498;2023-03-31T08:09:16;101123.91;;;7.98;60.06
50632;BME280;49583;45.590;-122.498;2023-03-31T08:11:30;101124.77;;;8.00;60.09
50632;BME280;49583;45.590;-122.498;2023-03-31T08:13:43;101124.17;;;7.98;60.02
50632;BME280;49583;45.590;-122.498;2023-03-31T08:15:55;101122.81;;;7.99;60.07
50632;BME280;49583;45.590;-122.498;2023-03-31T08:18:09;101126.31;;;7.99;60.07
50632;BME280;49583;45.590;-122.498;2023-03-31T08:20:24;101126.25;;;8.00;59.97
50632;BME280;49583;45.590;-122.498;2023-03-31T08:22:37;101127.46;;;8.01;60.02
50632;BME280;49583;45.590;-122.498;2023-03-31T08:24:51;101130.32;;;8.02;59.88
50632;BME280;49583;45.590;-122.498;2023-03-31T08:27:04;101133.79;;;8.03;59.93
50632;BME280;49583;45.590;-122.498;2023-03-31T08:29:21;101132.84;;;8.03;59.89
50632;BME280;49583;45.590;-122.498;2023-03-31T08:31:34;101134.02;;;8.02;59.90
50632;BME280;49583;45.590;-122.498;2023-03-31T08:33:48;101136.28;;;8.03;59.93
50632;BME280;49583;45.590;-122.498;2023-03-31T08:36:05;101135.89;;;8.05;59.94
50632;BME280;49583;45.590;-122.498;2023-03-31T08:38:19;101142.46;;;8.06;59.78
50632;BME280;49583;45.590;-122.498;2023-03-31T08:40:33;101139.04;;;8.06;59.86
50632;BME280;49583;45.590;-122.498;2023-03-31T08:42:48;101141.09;;;8.07;59.74
50632;BME280;49583;45.590;-122.498;2023-03-31T08:45:03;101142.15;;;8.06;59.90
50632;BME280;49583;45.590;-122.498;2023-03-31T08:47:20;101147.80;;;8.06;59.70
50632;BME280;49583;45.590;-122.498;2023-03-31T08:49:40;101146.33;;;8.07;59.74
50632;BME280;49583;45.590;-122.498;2023-03-31T08:51:58;101145.96;;;8.06;59.79
50632;BME280;49583;45.590;-122.498;2023-03-31T08:54:18;101147.68;;;8.06;59.89
50632;BME280;49583;45.590;-122.498;2023-03-31T08:56:35;101147.27;;;8.05;59.79
50632;BME280;49583;45.590;-122.498;2023-03-31T08:58:50;101146.58;;;8.03;59.79
50632;BME280;49583;45.590;-122.498;2023-03-31T09:01:10;101147.65;;;8.02;60.03
50632;BME280;49583;45.590;-122.498;2023-03-31T09:03:30;101150.79;;;8.01;60.05
50632;BME280;49583;45.590;-122.498;2023-03-31T09:05:52;101149.35;;;8.01;60.10
50632;BME280;49583;45.590;-122.498;2023-03-31T09:08:16;101150.44;;;8.01;59.99
50632;BME280;49583;45.590;-122.498;2023-03-31T09:10:49;101152.05;;;8.01;60.01
50632;BME280;49583;45.590;-122.498;2023-03-31T09:13:09;101153.08;;;8.00;60.22
50632;BME280;49583;45.590;-122.498;2023-03-31T09:15:31;101146.72;;;7.99;60.05
50632;BME280;49583;45.590;-122.498;2023-03-31T09:17:47;101149.48;;;8.00;60.23
50632;BME280;49583;45.590;-122.498;2023-03-31T09:20:04;101149.39;;;8.01;60.20
50632;BME280;49583;45.590;-122.498;2023-03-31T09:22:22;101146.97;;;8.01;60.34
50632;BME280;49583;45.590;-122.498;2023-03-31T09:24:40;101142.27;;;7.99;60.15
50632;BME280;49583;45.590;-122.498;2023-03-31T09:26:56;101139.38;;;7.96;60.41
50632;BME280;49583;45.590;-122.498;2023-03-31T09:29:14;101143.74;;;7.95;60.65
50632;BME280;49583;45.590;-122.498;2023-03-31T09:31:28;101149.42;;;7.94;60.46
50632;BME280;49583;45.590;-122.498;2023-03-31T09:33:45;101149.33;;;7.94;60.92
50632;BME280;49583;45.590;-122.498;2023-03-31T09:35:59;101147.56;;;7.94;60.60
50632;BME280;49583;45.590;-122.498;2023-03-31T09:38:15;101149.61;;;7.93;60.79
50632;BME280;49583;45.590;-122.498;2023-03-31T09:40:29;101146.66;;;7.92;60.84
50632;BME280;49583;45.590;-122.498;2023-03-31T09:42:43;101147.27;;;7.89;60.81
50632;BME280;49583;45.590;-122.498;2023-03-31T09:44:58;101151.33;;;7.90;60.97
50632;BME280;49583;45.590;-122.498;2023-03-31T09:47:16;101148.30;;;7.89;61.05
50632;BME280;49583;45.590;-122.498;2023-03-31T09:49:34;101149.38;;;7.90;61.01
50632;BME280;49583;45.590;-122.498;2023-03-31T09:51:51;101150.71;;;7.90;61.01
50632;BME280;49583;45.590;-122.498;2023-03-31T09:54:18;101150.79;;;7.90;61.06
50632;BME280;49583;45.590;-122.498;2023-03-31T09:56:44;101147.66;;;7.89;61.33
50632;BME280;49583;45.590;-122.498;2023-03-31T09:59:02;101150.94;;;7.89;61.21
50632;BME280;49583;45.590;-122.498;2023-03-31T10:01:17;101154.27;;;7.89;61.12
50632;BME280;49583;45.590;-122.498;2023-03-31T10:03:31;101150.71;;;7.88;61.22
50632;BME280;49583;45.590;-122.498;2023-03-31T10:05:53;101154.51;;;7.87;61.23
50632;BME280;49583;45.590;-122.498;2023-03-31T10:08:28;101154.84;;;7.86;61.20
50632;BME280;49583;45.590;-122.498;2023-03-31T10:10:49;101155.95;;;7.84;61.16
50632;BME280;49583;45.590;-122.498;2023-03-31T10:13:08;101157.17;;;7.84;61.11
50632;BME280;49583;45.590;-122.498;2023-03-31T10:15:26;101154.29;;;7.84;61.12
50632;BME280;49583;45.590;-122.498;2023-03-31T10:17:43;101159.23;;;7.83;61.14
50632;BME280;49583;45.590;-122.498;2023-03-31T10:20:20;101156.84;;;7.81;61.25
50632;BME280;49583;45.590;-122.498;2023-03-31T10:22:37;101159.30;;;7.80;61.33
50632;BME280;49583;45.590;-122.498;2023-03-31T10:25:03;101161.45;;;7.79;61.31
50632;BME280;49583;45.590;-122.498;2023-03-31T10:27:24;101160.09;;;7.80;61.42
50632;BME280;49583;45.590;-122.498;2023-03-31T10:29:40;101160.25;;;7.81;61.42
50632;BME280;49583;45.590;-122.498;2023-03-31T10:31:53;101158.81;;;7.82;61.48
50632;BME280;49583;45.590;-122.498;2023-03-31T10:34:11;101158.59;;;7.82;61.51
50632;BME280;49583;45.590;-122.498;2023-03-31T10:36:27;101157.40;;;7.84;61.42
50632;BME280;49583;45.590;-122.498;2023-03-31T10:38:43;101159.41;;;7.83;61.50
50632;BME280;49583;45.590;-122.498;2023-03-31T10:41:00;101161.12;;;7.83;61.60
50632;BME280;49583;45.590;-122.498;2023-03-31T10:43:17;101158.86;;;7.81;61.63
50632;BME280;49583;45.590;-122.498;2023-03-31T10:45:35;101158.02;;;7.81;61.60
50632;BME280;49583;45.590;-122.498;2023-03-31T10:47:51;101159.61;;;7.80;61.62
50632;BME280;49583;45.590;-122.498;2023-03-31T10:50:08;101160.89;;;7.79;61.66
50632;BME280;49583;45.590;-122.498;2023-03-31T10:52:26;101160.96;;;7.79;61.71
50632;BME280;49583;45.590;-122.498;2023-03-31T10:54:40;101157.95;;;7.78;61.70
50632;BME280;49583;45.590;-122.498;2023-03-31T10:57:00;101155.09;;;7.77;61.91
50632;BME280;49583;45.590;-122.498;2023-03-31T10:59:26;101158.88;;;7.76;62.07
50632;BME280;49583;45.590;-122.498;2023-03-31T11:01:53;101156.44;;;7.75;61.95
50632;BME280;49583;45.590;-122.498;2023-03-31T11:04:28;101155.25;;;7.72;61.96
50632;BME280;49583;45.590;-122.498;2023-03-31T11:06:55;101159.81;;;7.70;62.07
50632;BME280;49583;45.590;-122.498;2023-03-31T11:09:18;101156.87;;;7.68;61.94
50632;BME280;49583;45.590;-122.498;2023-03-31T11:12:07;101154.11;;;7.68;62.24
50632;BME280;49583;45.590;-122.498;2023-03-31T11:14:34;101156.26;;;7.67;62.36
50632;BME280;49583;45.590;-122.498;2023-03-31T11:16:59;101160.73;;;7.65;62.35
50632;BME280;49583;45.590;-122.498;2023-03-31T11:19:24;101161.35;;;7.63;62.55
50632;BME280;49583;45.590;-122.498;2023-03-31T11:21:51;101158.40;;;7.60;62.40
50632;BME280;49583;45.590;-122.498;2023-03-31T11:24:13;101155.46;;;7.59;62.45
50632;BME280;49583;45.590;-122.498;2023-03-31T11:26:38;101151.31;;;7.58;62.62
50632;BME280;49583;45.590;-122.498;2023-03-31T11:29:08;101149.95;;;7.59;62.64
50632;BME280;49583;45.590;-122.498;2023-03-31T11:31:35;101145.38;;;7.60;62.61
50632;BME280;49583;45.590;-122.498;2023-03-31T11:34:03;101150.35;;;7.60;62.51
50632;BME280;49583;45.590;-122.498;2023-03-31T11:36:30;101144.67;;;7.60;62.60
50632;BME280;49583;45.590;-122.498;2023-03-31T11:39:06;101151.13;;;7.59;62.71
50632;BME280;49583;45.590;-122.498;2023-03-31T11:41:31;101151.47;;;7.58;62.73
50632;BME280;49583;45.590;-122.498;2023-03-31T11:43:47;101156.23;;;7.56;62.72
50632;BME280;49583;45.590;-122.498;2023-03-31T11:46:05;101156.64;;;7.55;62.79